sensor_id;sensor_type;location;lat;lon;timestamp;P1;durP1;ratioP1;P2;durP2;ratioP2
20383;SDS011;46458;50.966;7.002;2022-07-23T00:01:23;19.98;;;16.33;;
20383;SDS011;46458;50.966;7.002;2022-07-23T00:03:49;18.50;;;15.98;;
20383;SDS011;46458;50.966;7.002;2022-07-23T00:06:16;18.80;;;16.75;;
20383;SDS011;46458;50.966;7.002;2022-07-23T00:08:42;18.50;;;15.20;;
20383;SDS011;46458;50.966;7.002;2022-07-23T00:11:08;17.88;;;16.00;;
20383;SDS011;46458;50.966;7.002;2022-07-23T00:13:33;20.30;;;15.13;;
20383;SDS011;46458;50.966;7.002;2022-07-23T00:15:59;18.15;;;15.82;;
20383;SDS011;46458;50.966;7.002;2022-07-23T00:18:27;19.73;;;15.13;;
20383;SDS011;46458;50.966;7.002;2022-07-23T00:20:53;18.90;;;14.35;;
20383;SDS011;46458;50.966;7.002;2022-07-23T00:23:18;20.77;;;15.80;;
20383;SDS011;46458;50.966;7.002;2022-07-23T00:25:44;20.27;;;16.17;;
20383;SDS011;46458;50.966;7.002;2022-07-23T00:28:12;22.70;;;16.67;;
20383;SDS011;46458;50.966;7.002;2022-07-23T00:30:38;20.50;;;17.65;;
20383;SDS011;46458;50.966;7.002;2022-07-23T00:33:05;23.58;;;17.58;;
20383;SDS011;46458;50.966;7.002;2022-07-23T00:35:35;22.20;;;17.77;;
20383;SDS011;46458;50.966;7.002;2022-07-23T00:38:03;21.75;;;17.85;;
20383;SDS011;46458;50.966;7.002;2022-07-23T00:40:30;23.35;;;18.33;;
20383;SDS011;46458;50.966;7.002;2022-07-23T00:42:55;23.40;;;18.23;;
20383;SDS011;46458;50.966;7.002;2022-07-23T00:45:21;18.83;;;16.60;;
20383;SDS011;46458;50.966;7.002;2022-07-23T00:47:47;20.58;;;16.55;;
20383;SDS011;46458;50.966;7.002;2022-07-23T00:50:13;20.50;;;17.73;;
20383;SDS011;46458;50.966;7.002;2022-07-23T00:52:39;20.55;;;17.15;;
20383;SDS011;46458;50.966;7.002;2022-07-23T00:55:05;21.65;;;16.63;;
20383;SDS011;46458;50.966;7.002;2022-07-23T00:57:32;22.48;;;17.13;;
20383;SDS011;46458;50.966;7.002;2022-07-23T00:59:58;21.33;;;16.83;;
20383;SDS011;46458;50.966;7.002;2022-07-23T01:02:24;20.42;;;16.38;;
20383;SDS011;46458;50.966;7.002;2022-07-23T01:04:51;21.40;;;17.50;;
20383;SDS011;46458;50.966;7.002;2022-07-23T01:07:17;23.67;;;17.73;;
20383;SDS011;46458;50.966;7.002;2022-07-23T01:09:44;19.13;;;16.20;;
20383;SDS011;46458;50.966;7.002;2022-07-23T01:12:10;20.77;;;17.25;;
20383;SDS011;46458;50.966;7.002;2022-07-23T01:14:36;21.52;;;17.15;;
20383;SDS011;46458;50.966;7.002;2022-07-23T01:17:02;23.67;;;18.35;;
20383;SDS011;46458;50.966;7.002;2022-07-23T01:19:28;21.85;;;16.92;;
20383;SDS011;46458;50.966;7.002;2022-07-23T01:21:53;22.88;;;17.25;;
20383;SDS011;46458;50.966;7.002;2022-07-23T01:24:21;23.77;;;18.52;;
20383;SDS011;46458;50.966;7.002;2022-07-23T01:26:47;24.52;;;17.95;;
20383;SDS011;46458;50.966;7.002;2022-07-23T01:29:15;22.95;;;18.27;;
20383;SDS011;46458;50.966;7.002;2022-07-23T01:31:45;25.00;;;19.45;;
20383;SDS011;46458;50.966;7.002;2022-07-23T01:34:12;22.40;;;18.55;;
20383;SDS011;46458;50.966;7.002;2022-07-23T01:36:37;23.10;;;17.60;;
20383;SDS011;46458;50.966;7.002;2022-07-23T01:39:07;22.75;;;18.27;;
20383;SDS011;46458;50.966;7.002;2022-07-23T01:41:33;25.83;;;19.55;;
20383;SDS011;46458;50.966;7.002;2022-07-23T01:43:59;23.70;;;17.98;;
20383;SDS011;46458;50.966;7.002;2022-07-23T01:46:24;21.67;;;18.45;;
20383;SDS011;46458;50.966;7.002;2022-07-23T01:48:50;25.73;;;19.98;;
20383;SDS011;46458;50.966;7.002;2022-07-23T01:51:16;23.90;;;18.20;;
20383;SDS011;46458;50.966;7.002;2022-07-23T01:53:41;24.15;;;18.80;;
20383;SDS011;46458;50.966;7.002;2022-07-23T01:56:07;24.55;;;19.30;;
20383;SDS011;46458;50.966;7.002;2022-07-23T01:58:32;23.50;;;18.88;;
20383;SDS011;46458;50.966;7.002;2022-07-23T02:00:58;26.77;;;19.33;;
20383;SDS011;46458;50.966;7.002;2022-07-23T02:03:24;24.88;;;19.50;;
20383;SDS011;46458;50.966;7.002;2022-07-23T02:05:50;22.25;;;19.50;;
20383;SDS011;46458;50.966;7.002;2022-07-23T02:08:16;25.75;;;19.77;;
20383;SDS011;46458;50.966;7.002;2022-07-23T02:10:42;21.67;;;18.08;;
20383;SDS011;46458;50.966;7.002;2022-07-23T02:13:10;24.98;;;19.00;;
20383;SDS011;46458;50.966;7.002;2022-07-23T02:15:36;25.70;;;19.88;;
20383;SDS011;46458;50.966;7.002;2022-07-23T02:18:02;23.33;;;19.25;;
20383;SDS011;46458;50.966;7.002;2022-07-23T02:20:28;22.05;;;18.30;;
20383;SDS011;46458;50.966;7.002;2022-07-23T02:22:53;22.83;;;18.55;;
20383;SDS011;46458;50.966;7.002;2022-07-23T02:25:19;22.25;;;17.55;;
20383;SDS011;46458;50.966;7.002;2022-07-23T02:27:44;21.95;;;17.15;;
20383;SDS011;46458;50.966;7.002;2022-07-23T02:30:10;24.10;;;18.73;;
20383;SDS011;46458;50.966;7.002;2022-07-23T02:32:36;24.65;;;18.25;;
20383;SDS011;46458;50.966;7.002;2022-07-23T02:35:05;21.50;;;18.45;;
20383;SDS011;46458;50.966;7.002;2022-07-23T02:37:31;23.60;;;18.20;;
20383;SDS011;46458;50.966;7.002;2022-07-23T02:40:00;25.65;;;19.55;;
20383;SDS011;46458;50.966;7.002;2022-07-23T02:42:26;23.85;;;18.33;;
20383;SDS011;46458;50.966;7.002;2022-07-23T02:44:51;19.95;;;16.50;;
20383;SDS011;46458;50.966;7.002;2022-07-23T02:47:17;20.92;;;16.67;;
20383;SDS011;46458;50.966;7.002;2022-07-23T02:49:43;21.58;;;17.08;;
20383;SDS011;46458;50.966;7.002;2022-07-23T02:52:08;22.05;;;16.88;;
20383;SDS011;46458;50.966;7.002;2022-07-23T02:54:35;22.00;;;18.10;;
20383;SDS011;46458;50.966;7.002;2022-07-23T02:57:01;20.85;;;17.95;;
20383;SDS011;46458;50.966;7.002;2022-07-23T02:59:30;20.02;;;17.25;;
20383;SDS011;46458;50.966;7.002;2022-07-23T03:01:55;20.90;;;17.52;;
20383;SDS011;46458;50.966;7.002;2022-07-23T03:04:21;24.88;;;19.02;;
20383;SDS011;46458;50.966;7.002;2022-07-23T03:06:47;23.52;;;18.63;;
20383;SDS011;46458;50.966;7.002;2022-07-23T03:09:12;23.85;;;18.15;;
20383;SDS011;46458;50.966;7.002;2022-07-23T03:11:38;23.85;;;18.75;;
20383;SDS011;46458;50.966;7.002;2022-07-23T03:14:03;24.25;;;17.90;;
20383;SDS011;46458;50.966;7.002;2022-07-23T03:16:29;26.85;;;18.65;;
20383;SDS011;46458;50.966;7.002;2022-07-23T03:18:55;23.35;;;18.20;;
20383;SDS011;46458;50.966;7.002;2022-07-23T03:21:23;25.08;;;17.30;;
20383;SDS011;46458;50.966;7.002;2022-07-23T03:23:49;23.73;;;17.67;;
20383;SDS011;46458;50.966;7.002;2022-07-23T03:26:14;23.83;;;18.20;;
20383;SDS011;46458;50.966;7.002;2022-07-23T03:28:40;23.83;;;17.35;;
20383;SDS011;46458;50.966;7.002;2022-07-23T03:31:05;22.40;;;19.15;;
20383;SDS011;46458;50.966;7.002;2022-07-23T03:33:34;24.80;;;18.17;;
20383;SDS011;46458;50.966;7.002;2022-07-23T03:36:00;26.98;;;19.20;;
20383;SDS011;46458;50.966;7.002;2022-07-23T03:38:25;26.67;;;20.10;;
20383;SDS011;46458;50.966;7.002;2022-07-23T03:40:51;27.00;;;19.92;;
20383;SDS011;46458;50.966;7.002;2022-07-23T03:43:16;26.35;;;19.63;;
20383;SDS011;46458;50.966;7.002;2022-07-23T03:45:42;28.55;;;20.55;;
20383;SDS011;46458;50.966;7.002;2022-07-23T03:48:07;30.20;;;20.67;;
20383;SDS011;46458;50.966;7.002;2022-07-23T03:50:33;28.73;;;21.75;;
20383;SDS011;46458;50.966;7.002;2022-07-23T03:52:59;28.52;;;21.83;;
20383;SDS011;46458;50.966;7.002;2022-07-23T03:55:25;28.55;;;21.63;;
20383;SDS011;46458;50.966;7.002;2022-07-23T03:57:53;27.30;;;21.35;;
20383;SDS011;46458;50.966;7.002;2022-07-23T04:00:19;30.17;;;22.30;;
20383;SDS011;46458;50.966;7.002;2022-07-23T04:02:48;29.58;;;23.38;;
20383;SDS011;46458;50.966;7.002;2022-07-23T04:05:13;28.58;;;22.65;;
20383;SDS011;46458;50.966;7.002;2022-07-23T04:07:39;27.27;;;22.90;;
20383;SDS011;46458;50.966;7.002;2022-07-23T04:10:05;29.25;;;22.90;;
20383;SDS011;46458;50.966;7.002;2022-07-23T04:12:31;31.38;;;22.27;;
20383;SDS011;46458;50.966;7.002;2022-07-23T04:14:57;28.95;;;22.67;;
20383;SDS011;46458;50.966;7.002;2022-07-23T04:17:22;27.58;;;21.90;;
20383;SDS011;46458;50.966;7.002;2022-07-23T04:19:48;28.80;;;21.75;;
20383;SDS011;46458;50.966;7.002;2022-07-23T04:22:13;29.25;;;22.80;;
20383;SDS011;46458;50.966;7.002;2022-07-23T04:24:39;27.52;;;21.50;;
20383;SDS011;46458;50.966;7.002;2022-07-23T04:27:05;25.77;;;21.27;;
20383;SDS011;46458;50.966;7.002;2022-07-23T04:29:30;23.65;;;19.58;;
20383;SDS011;46458;50.966;7.002;2022-07-23T04:31:56;26.70;;;19.77;;
20383;SDS011;46458;50.966;7.002;2022-07-23T04:34:22;26.25;;;18.85;;
20383;SDS011;46458;50.966;7.002;2022-07-23T04:36:47;26.02;;;18.80;;
20383;SDS011;46458;50.966;7.002;2022-07-23T04:39:13;26.88;;;18.77;;
20383;SDS011;46458;50.966;7.002;2022-07-23T04:41:42;28.50;;;19.90;;
20383;SDS011;46458;50.966;7.002;2022-07-23T04:44:07;24.65;;;19.17;;
20383;SDS011;46458;50.966;7.002;2022-07-23T04:46:33;25.27;;;19.35;;
20383;SDS011;46458;50.966;7.002;2022-07-23T04:48:58;25.65;;;19.27;;
20383;SDS011;46458;50.966;7.002;2022-07-23T04:51:27;28.17;;;20.50;;
20383;SDS011;46458;50.966;7.002;2022-07-23T04:53:53;25.65;;;19.50;;
20383;SDS011;46458;50.966;7.002;2022-07-23T04:56:19;23.52;;;18.98;;
20383;SDS011;46458;50.966;7.002;2022-07-23T04:58:48;24.25;;;19.13;;
20383;SDS011;46458;50.966;7.002;2022-07-23T05:01:13;28.67;;;21.27;;
20383;SDS011;46458;50.966;7.002;2022-07-23T05:03:39;23.60;;;19.38;;
20383;SDS011;46458;50.966;7.002;2022-07-23T05:06:05;27.67;;;20.08;;
20383;SDS011;46458;50.966;7.002;2022-07-23T05:08:30;26.65;;;21.55;;
20383;SDS011;46458;50.966;7.002;2022-07-23T05:10:56;29.48;;;20.75;;
20383;SDS011;46458;50.966;7.002;2022-07-23T05:13:22;27.60;;;20.50;;
20383;SDS011;46458;50.966;7.002;2022-07-23T05:15:47;26.88;;;19.75;;
20383;SDS011;46458;50.966;7.002;2022-07-23T05:18:13;28.85;;;21.73;;
20383;SDS011;46458;50.966;7.002;2022-07-23T05:20:38;25.23;;;20.58;;
20383;SDS011;46458;50.966;7.002;2022-07-23T05:23:07;24.60;;;20.90;;
20383;SDS011;46458;50.966;7.002;2022-07-23T05:25:33;28.33;;;21.10;;
20383;SDS011;46458;50.966;7.002;2022-07-23T05:27:58;27.83;;;22.17;;
20383;SDS011;46458;50.966;7.002;2022-07-23T05:30:24;31.10;;;22.20;;
20383;SDS011;46458;50.966;7.002;2022-07-23T05:32:49;29.45;;;21.83;;
20383;SDS011;46458;50.966;7.002;2022-07-23T05:35:15;26.40;;;20.73;;
20383;SDS011;46458;50.966;7.002;2022-07-23T05:37:41;31.15;;;21.88;;
20383;SDS011;46458;50.966;7.002;2022-07-23T05:40:08;26.00;;;20.38;;
20383;SDS011;46458;50.966;7.002;2022-07-23T05:42:35;28.70;;;22.90;;
20383;SDS011;46458;50.966;7.002;2022-07-23T05:45:05;29.73;;;21.42;;
20383;SDS011;46458;50.966;7.002;2022-07-23T05:47:44;28.92;;;21.13;;
20383;SDS011;46458;50.966;7.002;2022-07-23T05:50:13;28.67;;;21.88;;
20383;SDS011;46458;50.966;7.002;2022-07-23T05:52:40;29.30;;;21.90;;
20383;SDS011;46458;50.966;7.002;2022-07-23T05:55:06;28.60;;;22.10;;
20383;SDS011;46458;50.966;7.002;2022-07-23T05:57:33;29.83;;;22.33;;
20383;SDS011;46458;50.966;7.002;2022-07-23T05:59:59;29.65;;;21.90;;
20383;SDS011;46458;50.966;7.002;2022-07-23T06:02:28;29.95;;;21.67;;
20383;SDS011;46458;50.966;7.002;2022-07-23T06:04:53;28.70;;;21.10;;
20383;SDS011;46458;50.966;7.002;2022-07-23T06:07:19;26.35;;;19.90;;
20383;SDS011;46458;50.966;7.002;2022-07-23T06:09:44;27.40;;;21.10;;
20383;SDS011;46458;50.966;7.002;2022-07-23T06:12:11;26.50;;;20.45;;
20383;SDS011;46458;50.966;7.002;2022-07-23T06:14:40;26.65;;;20.33;;
20383;SDS011;46458;50.966;7.002;2022-07-23T06:17:06;28.05;;;20.92;;
20383;SDS011;46458;50.966;7.002;2022-07-23T06:19:32;26.75;;;19.33;;
20383;SDS011;46458;50.966;7.002;2022-07-23T06:21:57;28.17;;;19.70;;
20383;SDS011;46458;50.966;7.002;2022-07-23T06:24:23;25.95;;;19.65;;
20383;SDS011;46458;50.966;7.002;2022-07-23T06:26:48;25.60;;;19.17;;
20383;SDS011;46458;50.966;7.002;2022-07-23T06:29:14;26.08;;;18.50;;
20383;SDS011;46458;50.966;7.002;2022-07-23T06:31:39;28.13;;;19.88;;
20383;SDS011;46458;50.966;7.002;2022-07-23T06:34:05;25.23;;;18.83;;
20383;SDS011;46458;50.966;7.002;2022-07-23T06:36:31;25.52;;;18.63;;
20383;SDS011;46458;50.966;7.002;2022-07-23T06:38:56;25.55;;;20.50;;
20383;SDS011;46458;50.966;7.002;2022-07-23T06:41:22;22.98;;;18.02;;
20383;SDS011;46458;50.966;7.002;2022-07-23T06:43:48;27.35;;;20.17;;
20383;SDS011;46458;50.966;7.002;2022-07-23T06:46:13;20.08;;;16.50;;
20383;SDS011;46458;50.966;7.002;2022-07-23T06:48:39;26.25;;;20.40;;
20383;SDS011;46458;50.966;7.002;2022-07-23T06:51:05;25.00;;;17.13;;
20383;SDS011;46458;50.966;7.002;2022-07-23T06:53:30;24.77;;;18.23;;
20383;SDS011;46458;50.966;7.002;2022-07-23T06:55:56;22.30;;;18.42;;
20383;SDS011;46458;50.966;7.002;2022-07-23T06:58:21;22.08;;;18.20;;
20383;SDS011;46458;50.966;7.002;2022-07-23T07:00:47;21.00;;;18.05;;
20383;SDS011;46458;50.966;7.002;2022-07-23T07:03:13;23.20;;;16.95;;
20383;SDS011;46458;50.966;7.002;2022-07-23T07:05:38;23.60;;;16.70;;
20383;SDS011;46458;50.966;7.002;2022-07-23T07:08:07;21.17;;;15.95;;
20383;SDS011;46458;50.966;7.002;2022-07-23T07:10:32;18.13;;;14.35;;
20383;SDS011;46458;50.966;7.002;2022-07-23T07:12:58;20.25;;;15.30;;
20383;SDS011;46458;50.966;7.002;2022-07-23T07:15:23;17.67;;;15.60;;
20383;SDS011;46458;50.966;7.002;2022-07-23T07:17:49;20.17;;;16.48;;
20383;SDS011;46458;50.966;7.002;2022-07-23T07:20:15;20.15;;;16.40;;
20383;SDS011;46458;50.966;7.002;2022-07-23T07:22:40;21.80;;;17.10;;
20383;SDS011;46458;50.966;7.002;2022-07-23T07:25:06;31.95;;;23.27;;
20383;SDS011;46458;50.966;7.002;2022-07-23T07:27:32;22.65;;;16.38;;
20383;SDS011;46458;50.966;7.002;2022-07-23T07:29:58;22.75;;;15.98;;
20383;SDS011;46458;50.966;7.002;2022-07-23T07:32:23;20.77;;;15.40;;
20383;SDS011;46458;50.966;7.002;2022-07-23T07:34:49;18.55;;;15.15;;
20383;SDS011;46458;50.966;7.002;2022-07-23T07:37:14;16.98;;;14.60;;
20383;SDS011;46458;50.966;7.002;2022-07-23T07:39:40;21.05;;;14.48;;
20383;SDS011;46458;50.966;7.002;2022-07-23T07:42:06;21.00;;;15.55;;
20383;SDS011;46458;50.966;7.002;2022-07-23T07:44:31;16.15;;;14.20;;
20383;SDS011;46458;50.966;7.002;2022-07-23T07:46:57;21.38;;;15.05;;
20383;SDS011;46458;50.966;7.002;2022-07-23T07:49:22;21.02;;;14.95;;
20383;SDS011;46458;50.966;7.002;2022-07-23T07:51:48;20.35;;;16.13;;
20383;SDS011;46458;50.966;7.002;2022-07-23T07:54:14;20.85;;;15.90;;
20383;SDS011;46458;50.966;7.002;2022-07-23T07:56:40;21.20;;;14.38;;
20383;SDS011;46458;50.966;7.002;2022-07-23T07:59:05;16.88;;;13.07;;
20383;SDS011;46458;50.966;7.002;2022-07-23T08:01:31;17.42;;;13.43;;
20383;SDS011;46458;50.966;7.002;2022-07-23T08:03:57;17.48;;;13.82;;
20383;SDS011;46458;50.966;7.002;2022-07-23T08:06:22;19.42;;;14.70;;
20383;SDS011;46458;50.966;7.002;2022-07-23T08:08:48;19.05;;;14.85;;
20383;SDS011;46458;50.966;7.002;2022-07-23T08:11:13;17.92;;;15.35;;
20383;SDS011;46458;50.966;7.002;2022-07-23T08:13:42;18.98;;;14.95;;
20383;SDS011;46458;50.966;7.002;2022-07-23T08:16:09;20.73;;;15.48;;
20383;SDS011;46458;50.966;7.002;2022-07-23T08:18:35;20.42;;;14.82;;
20383;SDS011;46458;50.966;7.002;2022-07-23T08:21:01;16.88;;;13.50;;
20383;SDS011;46458;50.966;7.002;2022-07-23T08:23:26;17.52;;;13.60;;
20383;SDS011;46458;50.966;7.002;2022-07-23T08:25:52;15.65;;;12.20;;
20383;SDS011;46458;50.966;7.002;2022-07-23T08:28:18;16.83;;;12.38;;
20383;SDS011;46458;50.966;7.002;2022-07-23T08:30:44;14.45;;;11.57;;
20383;SDS011;46458;50.966;7.002;2022-07-23T08:33:10;14.15;;;11.40;;
20383;SDS011;46458;50.966;7.002;2022-07-23T08:35:41;15.98;;;11.10;;
20383;SDS011;46458;50.966;7.002;2022-07-23T08:38:11;13.55;;;11.35;;
20383;SDS011;46458;50.966;7.002;2022-07-23T08:40:40;13.30;;;11.35;;
20383;SDS011;46458;50.966;7.002;2022-07-23T08:43:11;11.27;;;10.13;;
20383;SDS011;46458;50.966;7.002;2022-07-23T08:45:39;13.40;;;11.88;;
20383;SDS011;46458;50.966;7.002;2022-07-23T08:48:07;12.18;;;10.77;;
20383;SDS011;46458;50.966;7.002;2022-07-23T08:50:37;12.25;;;10.95;;
20383;SDS011;46458;50.966;7.002;2022-07-23T08:53:07;13.02;;;10.57;;
20383;SDS011;46458;50.966;7.002;2022-07-23T08:55:36;11.98;;;10.70;;
20383;SDS011;46458;50.966;7.002;2022-07-23T08:58:01;14.50;;;10.05;;
20383;SDS011;46458;50.966;7.002;2022-07-23T09:00:28;11.27;;;10.00;;
20383;SDS011;46458;50.966;7.002;2022-07-23T09:02:54;11.35;;;10.18;;
20383;SDS011;46458;50.966;7.002;2022-07-23T09:05:20;10.73;;;9.45;;
20383;SDS011;46458;50.966;7.002;2022-07-23T09:08:03;10.25;;;9.25;;
20383;SDS011;46458;50.966;7.002;2022-07-23T09:10:28;10.90;;;9.80;;
20383;SDS011;46458;50.966;7.002;2022-07-23T09:12:54;10.50;;;9.48;;
20383;SDS011;46458;50.966;7.002;2022-07-23T09:15:20;11.77;;;10.45;;
20383;SDS011;46458;50.966;7.002;2022-07-23T09:17:45;13.55;;;12.15;;
20383;SDS011;46458;50.966;7.002;2022-07-23T09:20:12;13.20;;;10.52;;
20383;SDS011;46458;50.966;7.002;2022-07-23T09:22:44;11.00;;;9.90;;
20383;SDS011;46458;50.966;7.002;2022-07-23T09:25:15;10.20;;;9.07;;
20383;SDS011;46458;50.966;7.002;2022-07-23T09:27:57;12.18;;;9.40;;
20383;SDS011;46458;50.966;7.002;2022-07-23T09:30:28;15.30;;;10.73;;
20383;SDS011;46458;50.966;7.002;2022-07-23T09:33:10;11.52;;;10.30;;
20383;SDS011;46458;50.966;7.002;2022-07-23T09:35:50;13.00;;;10.32;;
20383;SDS011;46458;50.966;7.002;2022-07-23T09:38:21;12.15;;;9.73;;
20383;SDS011;46458;50.966;7.002;2022-07-23T09:43:32;12.95;;;11.60;;
20383;SDS011;46458;50.966;7.002;2022-07-23T09:49:14;13.95;;;12.48;;
20383;SDS011;46458;50.966;7.002;2022-07-23T09:51:49;12.50;;;11.20;;
20383;SDS011;46458;50.966;7.002;2022-07-23T09:54:30;14.30;;;12.13;;
20383;SDS011;46458;50.966;7.002;2022-07-23T09:57:01;13.85;;;12.40;;
20383;SDS011;46458;50.966;7.002;2022-07-23T09:59:29;12.02;;;10.82;;
20383;SDS011;46458;50.966;7.002;2022-07-23T10:01:56;14.63;;;11.68;;
20383;SDS011;46458;50.966;7.002;2022-07-23T10:04:25;15.93;;;12.10;;
20383;SDS011;46458;50.966;7.002;2022-07-23T10:06:54;14.65;;;13.18;;
20383;SDS011;46458;50.966;7.002;2022-07-23T10:09:25;11.82;;;10.63;;
20383;SDS011;46458;50.966;7.002;2022-07-23T10:11:59;11.38;;;10.27;;
20383;SDS011;46458;50.966;7.002;2022-07-23T10:14:30;13.10;;;11.70;;
20383;SDS011;46458;50.966;7.002;2022-07-23T10:16:57;12.38;;;11.13;;
20383;SDS011;46458;50.966;7.002;2022-07-23T10:19:23;12.23;;;10.35;;
20383;SDS011;46458;50.966;7.002;2022-07-23T10:21:54;13.00;;;11.18;;
20383;SDS011;46458;50.966;7.002;2022-07-23T10:27:37;11.52;;;10.38;;
20383;SDS011;46458;50.966;7.002;2022-07-23T10:32:54;13.77;;;10.98;;
20383;SDS011;46458;50.966;7.002;2022-07-23T10:38:05;9.10;;;7.55;;
20383;SDS011;46458;50.966;7.002;2022-07-23T10:40:36;8.73;;;7.60;;
20383;SDS011;46458;50.966;7.002;2022-07-23T10:43:02;9.05;;;8.15;;
20383;SDS011;46458;50.966;7.002;2022-07-23T10:45:42;8.68;;;7.55;;
20383;SDS011;46458;50.966;7.002;2022-07-23T10:48:15;8.60;;;7.75;;
20383;SDS011;46458;50.966;7.002;2022-07-23T10:59:20;9.82;;;8.90;;
20383;SDS011;46458;50.966;7.002;2022-07-23T11:01:45;11.10;;;8.75;;
20383;SDS011;46458;50.966;7.002;2022-07-23T11:04:11;12.00;;;8.68;;
20383;SDS011;46458;50.966;7.002;2022-07-23T11:09:28;9.20;;;8.13;;
20383;SDS011;46458;50.966;7.002;2022-07-23T11:15:00;9.25;;;7.53;;
20383;SDS011;46458;50.966;7.002;2022-07-23T11:17:37;11.65;;;8.43;;
20383;SDS011;46458;50.966;7.002;2022-07-23T11:25:09;13.02;;;9.82;;
20383;SDS011;46458;50.966;7.002;2022-07-23T11:27:56;10.00;;;8.93;;
20383;SDS011;46458;50.966;7.002;2022-07-23T11:35:33;8.50;;;6.72;;
20383;SDS011;46458;50.966;7.002;2022-07-23T11:38:05;6.60;;;5.90;;
20383;SDS011;46458;50.966;7.002;2022-07-23T11:40:52;8.23;;;6.20;;
20383;SDS011;46458;50.966;7.002;2022-07-23T11:43:19;7.68;;;6.93;;
20383;SDS011;46458;50.966;7.002;2022-07-23T11:45:48;9.32;;;8.52;;
20383;SDS011;46458;50.966;7.002;2022-07-23T11:48:26;8.77;;;7.88;;
20383;SDS011;46458;50.966;7.002;2022-07-23T11:50:54;9.63;;;8.70;;
20383;SDS011;46458;50.966;7.002;2022-07-23T11:53:22;9.13;;;7.72;;
20383;SDS011;46458;50.966;7.002;2022-07-23T11:55:53;7.88;;;7.18;;
20383;SDS011;46458;50.966;7.002;2022-07-23T11:58:20;11.27;;;7.32;;
20383;SDS011;46458;50.966;7.002;2022-07-23T12:00:46;8.30;;;7.18;;
20383;SDS011;46458;50.966;7.002;2022-07-23T12:03:12;8.55;;;7.35;;
20383;SDS011;46458;50.966;7.002;2022-07-23T12:05:38;7.75;;;7.15;;
20383;SDS011;46458;50.966;7.002;2022-07-23T12:08:05;8.45;;;7.55;;
20383;SDS011;46458;50.966;7.002;2022-07-23T12:10:37;9.13;;;8.23;;
20383;SDS011;46458;50.966;7.002;2022-07-23T12:13:08;8.27;;;7.32;;
20383;SDS011;46458;50.966;7.002;2022-07-23T12:15:38;9.88;;;7.75;;
20383;SDS011;46458;50.966;7.002;2022-07-23T12:18:07;9.35;;;8.38;;
20383;SDS011;46458;50.966;7.002;2022-07-23T12:20:36;10.10;;;8.48;;
20383;SDS011;46458;50.966;7.002;2022-07-23T12:23:08;8.68;;;7.85;;
20383;SDS011;46458;50.966;7.002;2022-07-23T12:25:36;8.98;;;8.18;;
20383;SDS011;46458;50.966;7.002;2022-07-23T12:28:07;8.82;;;7.75;;
20383;SDS011;46458;50.966;7.002;2022-07-23T12:30:53;8.13;;;6.97;;
20383;SDS011;46458;50.966;7.002;2022-07-23T12:33:21;9.75;;;6.97;;
20383;SDS011;46458;50.966;7.002;2022-07-23T12:35:47;7.30;;;6.57;;
20383;SDS011;46458;50.966;7.002;2022-07-23T12:38:15;7.32;;;6.20;;
20383;SDS011;46458;50.966;7.002;2022-07-23T12:45:49;9.43;;;6.68;;
20383;SDS011;46458;50.966;7.002;2022-07-23T12:48:17;6.40;;;5.80;;
20383;SDS011;46458;50.966;7.002;2022-07-23T12:50:49;7.88;;;6.38;;
20383;SDS011;46458;50.966;7.002;2022-07-23T12:53:31;7.68;;;5.90;;
20383;SDS011;46458;50.966;7.002;2022-07-23T12:58:46;10.93;;;5.60;;
20383;SDS011;46458;50.966;7.002;2022-07-23T13:06:24;5.63;;;4.80;;
20383;SDS011;46458;50.966;7.002;2022-07-23T13:08:50;6.85;;;5.32;;
20383;SDS011;46458;50.966;7.002;2022-07-23T13:11:17;6.40;;;4.63;;
20383;SDS011;46458;50.966;7.002;2022-07-23T13:13:45;5.85;;;5.25;;
20383;SDS011;46458;50.966;7.002;2022-07-23T13:16:11;6.15;;;5.30;;
20383;SDS011;46458;50.966;7.002;2022-07-23T13:18:36;5.45;;;4.63;;
20383;SDS011;46458;50.966;7.002;2022-07-23T13:21:02;5.70;;;4.80;;
20383;SDS011;46458;50.966;7.002;2022-07-23T13:23:28;7.55;;;4.57;;
20383;SDS011;46458;50.966;7.002;2022-07-23T13:25:54;6.72;;;5.15;;
20383;SDS011;46458;50.966;7.002;2022-07-23T13:28:20;5.43;;;4.93;;
20383;SDS011;46458;50.966;7.002;2022-07-23T13:30:47;4.50;;;4.00;;
20383;SDS011;46458;50.966;7.002;2022-07-23T13:33:14;4.85;;;4.30;;
20383;SDS011;46458;50.966;7.002;2022-07-23T13:35:41;5.45;;;4.80;;
20383;SDS011;46458;50.966;7.002;2022-07-23T13:38:07;6.43;;;4.78;;
20383;SDS011;46458;50.966;7.002;2022-07-23T13:40:35;5.50;;;5.00;;
20383;SDS011;46458;50.966;7.002;2022-07-23T13:43:07;5.63;;;5.13;;
20383;SDS011;46458;50.966;7.002;2022-07-23T13:45:37;5.80;;;5.10;;
20383;SDS011;46458;50.966;7.002;2022-07-23T13:48:04;5.35;;;4.70;;
20383;SDS011;46458;50.966;7.002;2022-07-23T13:50:30;6.57;;;5.03;;
20383;SDS011;46458;50.966;7.002;2022-07-23T13:52:55;6.70;;;4.43;;
20383;SDS011;46458;50.966;7.002;2022-07-23T13:55:21;4.97;;;4.20;;
20383;SDS011;46458;50.966;7.002;2022-07-23T13:57:47;8.05;;;4.10;;
20383;SDS011;46458;50.966;7.002;2022-07-23T14:00:13;5.75;;;4.22;;
20383;SDS011;46458;50.966;7.002;2022-07-23T14:02:40;4.85;;;4.00;;
20383;SDS011;46458;50.966;7.002;2022-07-23T14:05:06;6.13;;;3.60;;
20383;SDS011;46458;50.966;7.002;2022-07-23T14:07:34;4.45;;;3.90;;
20383;SDS011;46458;50.966;7.002;2022-07-23T14:10:00;4.32;;;3.92;;
20383;SDS011;46458;50.966;7.002;2022-07-23T14:12:25;4.78;;;3.50;;
20383;SDS011;46458;50.966;7.002;2022-07-23T14:14:51;6.22;;;3.78;;
20383;SDS011;46458;50.966;7.002;2022-07-23T14:17:17;5.55;;;3.50;;
20383;SDS011;46458;50.966;7.002;2022-07-23T14:19:43;5.78;;;3.55;;
20383;SDS011;46458;50.966;7.002;2022-07-23T14:22:09;3.70;;;3.30;;
20383;SDS011;46458;50.966;7.002;2022-07-23T14:24:34;3.60;;;3.00;;
20383;SDS011;46458;50.966;7.002;2022-07-23T14:27:00;5.53;;;3.70;;
20383;SDS011;46458;50.966;7.002;2022-07-23T14:29:27;3.50;;;3.20;;
20383;SDS011;46458;50.966;7.002;2022-07-23T14:31:53;3.90;;;3.25;;
20383;SDS011;46458;50.966;7.002;2022-07-23T14:34:18;4.95;;;3.50;;
20383;SDS011;46458;50.966;7.002;2022-07-23T14:36:44;3.65;;;3.35;;
20383;SDS011;46458;50.966;7.002;2022-07-23T14:39:10;4.25;;;2.92;;
20383;SDS011;46458;50.966;7.002;2022-07-23T14:41:36;4.88;;;3.10;;
20383;SDS011;46458;50.966;7.002;2022-07-23T14:44:08;3.65;;;2.72;;
20383;SDS011;46458;50.966;7.002;2022-07-23T14:46:34;5.00;;;3.60;;
20383;SDS011;46458;50.966;7.002;2022-07-23T14:49:00;3.50;;;3.20;;
20383;SDS011;46458;50.966;7.002;2022-07-23T14:51:25;4.85;;;3.50;;
20383;SDS011;46458;50.966;7.002;2022-07-23T14:53:52;7.10;;;3.97;;
20383;SDS011;46458;50.966;7.002;2022-07-23T14:56:18;5.05;;;3.70;;
20383;SDS011;46458;50.966;7.002;2022-07-23T14:58:43;4.07;;;3.05;;
20383;SDS011;46458;50.966;7.002;2022-07-23T15:01:09;3.80;;;3.38;;
20383;SDS011;46458;50.966;7.002;2022-07-23T15:03:35;3.40;;;3.10;;
20383;SDS011;46458;50.966;7.002;2022-07-23T15:06:00;3.00;;;2.80;;
20383;SDS011;46458;50.966;7.002;2022-07-23T15:08:26;4.03;;;3.05;;
20383;SDS011;46458;50.966;7.002;2022-07-23T15:10:51;3.40;;;2.75;;
20383;SDS011;46458;50.966;7.002;2022-07-23T15:13:17;3.53;;;3.17;;
20383;SDS011;46458;50.966;7.002;2022-07-23T15:15:43;3.67;;;2.92;;
20383;SDS011;46458;50.966;7.002;2022-07-23T15:18:08;4.78;;;3.20;;
20383;SDS011;46458;50.966;7.002;2022-07-23T15:20:34;3.40;;;3.10;;